Terminal Aerodrome Forecast
Issued by NWS Mt. Holly, NJ

Home | Current Version | Previous Version | Text Only | Print | Product List | Glossary On
Versions: 1 2 3 4 5 6 7 8 9 10 11 12 13 14 15 16 17 18 19 20 21 22 23 24 25 26 27 28 29 30 31
000
FTUS41 KPHI 171700
TAFPHL
TAF
KPHL 171720Z 1718/1824 11011G17KT P6SM SCT040
      TEMPO 1718/1722 BKN040
     FM180300 07008KT P6SM BKN030
     FM180800 05005KT P6SM BKN020
     FM181400 07007KT P6SM SCT030
     FM181800 12006KT P6SM SCT040=

USA.gov is the U.S. government's official web portal to all federal, state and local government web resources and services.